Latest Weather Observations for Cape Jaffa

IDS60801

Issued at 10:32 pm CDT Saturday 28 February 2015 (issued every 30 minutes, with the page automatically refreshed every 10 minutes)

About weather observations | Map of weather stations | Latest weather observations for SA | Other Formats
Station Details ID: 026095 Name: THE LIMESTONE Lat: -36.97 Lon: 139.72 Height: 17.0 m
Data from the previous 72 hours. | See also: Recent months at Cape Jaffa
Date/Time
CDT
Temp
°C
App
Temp
°C
Dew
Point
Rel
Hum
%
Delta-T
°C
Wind Press
QNH
hPa
Press
MSL
hPa
Rain
since 9 am
mm
Dir
 
Spd
km/h
Gust
km/h
Spd
kts
Gust
kts
28/10:30pm 15.8 13.9 13.1 84 1.5 SW 15 19 8 10 1010.2 1010.1 2.0
28/10:00pm 16.0 13.4 13.3 84 1.5 SW 19 26 10 14 1010.1 1010.0 2.0
28/09:30pm 16.4 13.9 13.5 83 1.6 SW 19 24 10 13 1009.7 1009.6 2.0
28/09:00pm 16.2 13.5 13.5 84 1.5 SW 20 26 11 14 1009.1 1009.0 2.0
28/08:30pm 16.2 13.1 13.5 84 1.5 SW 22 30 12 16 1008.5 1008.4 2.0
28/08:00pm 16.4 13.1 13.9 85 1.4 SW 24 32 13 17 1008.0 1007.9 2.0
28/07:30pm 17.0 13.8 14.3 84 1.5 SW 24 32 13 17 1007.4 1007.3 2.0
28/07:00pm 17.3 14.7 14.9 86 1.4 SW 22 30 12 16 1007.2 1007.1 2.0
28/06:30pm 17.7 14.6 15.7 88 1.2 SW 26 33 14 18 1006.5 1006.4 2.0
28/06:00pm 17.9 15.4 16.1 89 1.1 SW 24 33 13 18 1006.1 1006.0 2.0
28/05:30pm 17.7 15.5 16.0 90 1.0 SW 22 26 12 14 1005.4 1005.3 2.0
28/05:00pm 18.5 16.6 16.8 90 1.0 SW 22 32 12 17 1005.1 1005.0 1.4
28/04:30pm 18.0 15.9 16.3 90 1.0 SW 22 28 12 15 1004.7 1004.6 1.4
28/04:00pm 18.9 17.8 17.2 90 1.0 SW 19 28 10 15 1004.7 1004.6 1.4
28/03:30pm 18.8 15.6 16.4 86 1.4 WSW 28 35 15 19 1005.0 1004.9 0.8
28/03:00pm 22.7 19.3 16.7 69 3.7 SW 30 39 16 21 1003.4 1003.4 0.0
28/02:30pm 22.7 19.5 16.3 67 3.9 SW 28 37 15 20 1003.5 1003.5 0.0
28/02:00pm 23.9 21.1 15.4 59 5.1 SW 24 33 13 18 1003.4 1003.4 0.0
28/01:30pm 24.9 21.9 15.8 57 5.5 WSW 26 32 14 17 1003.6 1003.6 0.0
28/01:00pm 24.2 21.1 15.7 59 5.1 W 26 32 14 17 1004.0 1004.0 0.0
28/12:30pm 24.6 22.6 15.5 57 5.5 W 20 28 11 15 1003.7 1003.7 0.0
28/12:00pm 23.3 21.1 15.9 63 4.5 W 22 28 12 15 1004.1 1004.1 0.0
28/11:30am 25.3 23.1 15.0 53 6.2 NW 20 26 11 14 1003.9 1003.9 0.0
28/11:00am 24.8 23.1 15.7 57 5.5 NNW 19 22 10 12 1003.8 1003.8 0.0
28/10:30am 23.6 23.1 15.9 62 4.7 NW 13 17 7 9 1003.9 1003.9 0.0
28/10:00am 21.7 21.2 15.8 69 3.5 N 13 17 7 9 1003.9 1003.9 0.0
28/09:30am 21.4 21.3 15.9 71 3.3 NNW 11 15 6 8 1004.0 1004.0 0.0
28/09:00am 22.1 22.5 16.4 70 3.5 NNE 9 13 5 7 1003.9 1003.9 1.2
28/08:30am 21.0 21.1 16.4 75 2.8 ENE 11 13 6 7 1003.7 1003.7 1.2
28/08:00am 20.3 20.2 15.9 76 2.6 ENE 11 13 6 7 1003.6 1003.6 1.2
28/07:30am 19.8 19.2 15.7 77 2.4 NE 13 15 7 8 1003.6 1003.6 1.2
28/07:00am 19.8 19.5 15.4 76 2.6 ENE 11 13 6 7 1003.4 1003.4 1.2
28/06:30am 20.3 19.6 15.5 74 2.9 NE 13 15 7 8 1003.4 1003.4 1.2
28/06:00am 20.6 19.2 15.6 73 3.0 NE 17 20 9 11 1003.3 1003.3 1.2
28/05:30am 20.1 19.0 15.3 74 2.8 NE 15 17 8 9 1003.0 1003.0 1.2
28/05:00am 20.7 19.6 15.3 71 3.2 NE 15 22 8 12 1003.3 1003.3 1.2
28/04:30am 20.5 19.7 15.1 71 3.2 ENE 13 20 7 11 1003.6 1003.6 1.2
28/04:00am 19.6 18.3 15.7 78 2.3 NNE 17 20 9 11 1004.2 1004.2 1.2
28/03:30am 18.6 18.2 15.3 81 1.9 NE 11 13 6 7 1004.2 1004.2 1.2
28/03:00am 18.4 17.7 15.3 82 1.8 ENE 13 15 7 8 1004.6 1004.5 1.2
28/02:30am 18.4 16.4 15.5 83 1.7 NE 20 24 11 13 1005.1 1005.0 1.2
28/02:00am 17.9 16.0 15.3 85 1.5 NE 19 24 10 13 1005.8 1005.7 1.2
28/01:30am 17.7 16.6 15.3 86 1.4 ENE 15 20 8 11 1006.1 1006.0 1.2
28/01:00am 17.6 16.1 15.4 87 1.3 ENE 17 20 9 11 1006.9 1006.8 1.2
28/12:30am 17.6 17.2 15.2 86 1.4 NE 11 20 6 11 1008.1 1008.0 1.2
28/12:00am 17.6 17.5 15.0 85 1.5 E 9 15 5 8 1007.7 1007.6 1.2
 
Date/Time
CDT
Temp
°C
App
Temp
°C
Dew
Point
Rel
Hum
%
Delta-T
°C
Wind Press
QNH
hPa
Press
MSL
hPa
Rain
since 9 am
mm
Dir
 
Spd
km/h
Gust
km/h
Spd
kts
Gust
kts
27/11:30pm 17.6 16.7 14.9 84 1.6 ESE 13 17 7 9 1007.6 1007.5 1.2
27/11:00pm 17.5 16.6 14.8 84 1.6 ESE 13 19 7 10 1008.3 1008.2 1.2
27/10:30pm 17.5 17.0 15.0 85 1.5 ESE 11 17 6 9 1009.3 1009.2 1.2
27/10:00pm 17.7 17.5 14.8 83 1.7 SE 9 13 5 7 1010.0 1009.9 0.8
27/09:30pm 17.9 17.2 14.4 80 2.0 SE 11 15 6 8 1009.8 1009.7 0.4
27/09:00pm 18.1 18.1 14.2 78 2.2 SSE 7 9 4 5 1010.0 1009.9 0.2
27/08:30pm 18.2 17.4 14.1 77 2.4 SE 11 15 6 8 1009.4 1009.3 0.2
27/08:00pm 18.1 16.8 13.8 76 2.5 SE 13 17 7 9 1008.9 1008.8 0.0
27/07:30pm 18.9 18.5 14.2 74 2.7 SSE 9 13 5 7 1009.0 1008.9 0.0
27/07:00pm 19.6 18.2 13.5 68 3.5 SSE 13 19 7 10 1008.6 1008.5 0.0
27/06:30pm 19.4 17.8 14.0 71 3.1 S 15 19 8 10 1008.6 1008.5 0.0
27/06:00pm 19.5 17.1 14.3 72 3.0 S 20 24 11 13 1008.4 1008.3 0.0
27/05:30pm 19.8 17.4 13.7 68 3.5 S 19 22 10 12 1008.5 1008.4 0.0
27/05:00pm 19.6 16.7 14.0 70 3.2 S 22 28 12 15 1008.6 1008.5 0.0
27/04:30pm 18.8 14.6 13.4 71 3.1 S 28 32 15 17 1008.5 1008.4 0.0
27/04:00pm 18.7 15.2 14.4 76 2.5 S 26 32 14 17 1008.5 1008.4 0.0
27/03:30pm 19.6 15.2 14.0 70 3.2 SSW 30 33 16 18 1008.7 1008.6 0.0
27/03:00pm 20.0 15.2 14.1 69 3.4 SSW 32 39 17 21 1008.8 1008.7 0.0
27/02:30pm 21.1 17.4 14.0 64 4.1 S 26 30 14 16 1009.2 1009.1 0.0
27/02:00pm 20.9 17.4 14.5 67 3.7 SSW 26 32 14 17 1009.6 1009.5 0.0
27/01:30pm 22.0 19.5 14.1 61 4.6 SW 20 24 11 13 1009.7 1009.6 0.0
27/01:00pm 23.8 23.5 14.5 56 5.5 WSW 9 19 5 10 1009.8 1009.7 0.0
27/12:30pm 24.3 23.0 13.8 52 6.2 N 13 20 7 11 1009.9 1009.8 0.0
27/12:00pm 22.9 21.4 14.2 58 5.1 N 15 20 8 11 1010.4 1010.3 0.0
27/11:30am 21.2 20.0 13.9 63 4.2 NNW 13 17 7 9 1010.7 1010.6 0.0
27/11:00am 20.8 19.7 14.2 66 3.8 N 13 17 7 9 1011.0 1010.9 0.0
27/10:30am 19.7 18.6 14.3 71 3.1 NNW 13 19 7 10 1011.4 1011.3 0.0
27/10:00am 19.5 18.3 14.1 71 3.1 N 13 17 7 9 1011.5 1011.4 0.0
27/09:30am 19.6 18.1 14.2 71 3.1 NE 15 20 8 11 1011.3 1011.2 0.0
27/09:00am 18.2 16.9 14.9 81 1.9 NE 15 19 8 10 1011.4 1011.3 0.0
27/08:30am 16.2 15.2 14.6 90 0.9 ENE 13 15 7 8 1011.0 1010.9 0.0
27/08:00am 15.3 15.3 14.2 93 0.6 ENE 7 9 4 5 1011.1 1011.0 0.0
27/07:30am 13.9 14.0 12.6 92 0.7 ENE 4 6 2 3 1011.3 1011.2 0.0
27/07:00am 13.9 14.7 12.6 92 0.7 CALM 0 0 0 0 1011.1 1011.0 0.0
27/06:30am 13.3 13.9 11.9 91 0.8 CALM 0 0 0 0 1010.5 1010.4 0.0
27/06:00am 14.2 15.1 12.8 91 0.8 CALM 0 0 0 0 1010.3 1010.2 0.0
27/05:30am 15.2 16.4 13.9 92 0.7 CALM 0 0 0 0 1010.3 1010.2 0.0
27/05:00am 14.7 15.7 13.2 91 0.8 CALM 0 0 0 0 1010.6 1010.5 0.0
27/04:30am 15.4 16.3 13.9 91 0.8 SSE 2 4 1 2 1010.2 1010.1 0.0
27/04:00am 15.9 16.0 14.4 91 0.9 E 7 15 4 8 1010.1 1010.0 0.0
27/03:30am 15.9 15.7 14.6 92 0.7 ESE 9 13 5 7 1010.6 1010.5 0.0
27/03:00am 15.3 15.4 14.0 92 0.7 E 6 9 3 5 1010.7 1010.6 0.0
27/02:30am 14.5 14.3 13.0 91 0.8 E 6 7 3 4 1010.7 1010.6 0.0
27/02:00am 15.0 15.3 13.4 90 0.9 SSE 4 6 2 3 1011.3 1011.2 0.0
27/01:30am 15.5 15.6 13.9 90 0.9 E 6 6 3 3 1011.5 1011.4 0.0
27/01:00am 15.8 15.8 14.2 90 0.9 E 7 9 4 5 1011.3 1011.2 0.0
27/12:30am 16.2 16.3 14.4 89 1.0 SSE 7 11 4 6 1012.1 1012.0 0.0
27/12:00am 16.6 14.6 15.0 90 0.9 S 19 24 10 13 1012.1 1012.0 0.0
 
Date/Time
CDT
Temp
°C
App
Temp
°C
Dew
Point
Rel
Hum
%
Delta-T
°C
Wind Press
QNH
hPa
Press
MSL
hPa
Rain
since 9 am
mm
Dir
 
Spd
km/h
Gust
km/h
Spd
kts
Gust
kts
26/11:30pm 16.7 14.8 15.2 91 0.9 S 19 24 10 13 1012.3 1012.2 0.0
26/11:00pm 16.6 14.7 15.1 91 0.9 S 19 22 10 12 1012.4 1012.3 0.0
26/10:30pm 16.6 15.0 15.1 91 0.9 SSW 17 19 9 10 1012.6 1012.5 0.0
26/10:00pm 16.6 15.4 15.0 90 0.9 SSW 15 19 8 10 1012.5 1012.4 0.0
26/09:30pm 16.7 15.4 14.9 89 1.0 SSW 15 17 8 9 1012.2 1012.1 0.0
26/09:00pm 16.8 15.9 14.8 88 1.2 SSW 13 15 7 8 1012.0 1011.9 0.0
26/08:30pm 16.9 15.6 14.7 87 1.3 SSW 15 17 8 9 1011.7 1011.6 0.0
26/08:00pm 17.2 15.9 14.7 85 1.4 SSW 15 17 8 9 1011.5 1011.4 0.0
26/07:30pm 18.1 17.3 15.0 82 1.8 SW 13 19 7 10 1011.4 1011.3 0.0
26/07:00pm 18.6 17.0 14.9 79 2.2 SW 17 20 9 11 1011.3 1011.2 0.0
26/06:30pm 19.3 17.8 15.2 77 2.4 SW 17 20 9 11 1011.1 1011.0 0.0
26/06:00pm 19.6 17.5 15.3 76 2.5 SW 20 24 11 13 1011.0 1010.9 0.0
26/05:30pm 19.8 17.6 15.0 74 2.8 SW 20 24 11 13 1011.1 1011.0 0.0
26/05:00pm 20.0 17.3 14.6 71 3.1 SW 22 30 12 16 1011.0 1010.9 0.0
26/04:30pm 20.9 18.3 15.0 69 3.5 SW 22 28 12 15 1011.0 1010.9 0.0
26/04:00pm 20.9 18.1 14.3 66 3.8 SW 22 28 12 15 1011.0 1010.9 0.0
26/03:30pm 20.5 17.9 13.9 66 3.8 WSW 20 26 11 14 1011.3 1011.2 0.0
26/03:00pm 20.9 18.2 13.6 63 4.2 WSW 20 26 11 14 1011.8 1011.7 0.0
26/02:30pm 20.9 18.4 13.6 63 4.2 WSW 19 24 10 13 1012.0 1011.9 0.0
26/02:00pm 20.4 17.9 13.4 64 4.0 WSW 19 26 10 14 1012.1 1012.0 0.0
26/01:30pm 20.1 17.4 12.8 63 4.1 WSW 19 24 10 13 1012.2 1012.1 0.0
26/01:00pm 20.3 18.0 13.0 63 4.1 WSW 17 24 9 13 1012.6 1012.5 0.0
26/12:30pm 19.8 17.1 13.0 65 3.9 WSW 19 24 10 13 1012.9 1012.8 0.0
26/12:00pm 19.9 17.6 13.1 65 3.9 WSW 17 22 9 12 1013.2 1013.1 0.0
26/11:30am 19.7 18.2 13.2 66 3.7 SW 13 20 7 11 1013.4 1013.3 0.0
26/11:00am 19.8 18.8 13.3 66 3.7 SW 11 17 6 9 1013.5 1013.4 0.0
26/10:30am 18.7 17.1 12.9 69 3.3 SW 13 19 7 10 1013.5 1013.4 0.0
26/10:00am 18.4 17.2 12.8 70 3.1 SW 11 17 6 9 1013.5 1013.4 0.0
26/09:30am 18.5 17.5 13.4 72 2.9 WSW 11 17 6 9 1013.4 1013.3 0.0
26/09:00am 17.6 16.4 12.7 73 2.7 WSW 11 15 6 8 1013.2 1013.1 0.0
26/08:30am 16.9 16.5 13.0 78 2.2 WSW 7 9 4 5 1012.8 1012.7 0.0
26/08:00am 15.2 15.8 13.1 87 1.2 W 2 4 1 2 1012.4 1012.3 0.0
26/07:30am 13.9 13.7 11.8 87 1.1 WSW 4 6 2 3 1012.3 1012.2 0.0
26/07:00am 13.4 12.5 11.3 87 1.1 SW 7 7 4 4 1012.2 1012.1 0.0
26/06:30am 14.1 14.0 12.0 87 1.1 WSW 4 4 2 2 1011.7 1011.6 0.0
26/06:00am 14.0 13.3 11.9 87 1.1 WSW 7 7 4 4 1011.6 1011.5 0.0
26/05:30am 14.2 13.4 11.7 85 1.3 SW 7 9 4 5 1011.3 1011.2 0.0
26/05:00am 14.7 14.2 12.2 85 1.4 SW 6 6 3 3 1011.2 1011.1 0.0
26/04:30am 14.5 15.2 12.2 86 1.2 CALM 0 6 0 3 1011.2 1011.1 0.0
26/04:00am 14.5 14.4 12.2 86 1.2 NE 4 6 2 3 1011.0 1010.9 0.0
26/03:30am 14.7 15.3 12.0 84 1.5 CALM 0 4 0 2 1010.5 1010.4 0.0
26/03:00am 14.9 14.5 12.4 85 1.4 SSW 6 7 3 4 1011.3 1011.2 0.0
26/02:30am 15.0 13.7 12.5 85 1.4 SW 11 15 6 8 1012.0 1011.9 0.0
26/02:00am 14.8 13.2 12.7 87 1.2 SW 13 17 7 9 1012.4 1012.3 0.0
26/01:30am 14.8 13.3 13.0 89 1.0 SW 13 17 7 9 1012.7 1012.6 0.0
26/01:00am 14.1 13.4 12.1 88 1.1 SSE 7 7 4 4 1012.0 1011.9 0.0
26/12:30am 14.3 13.8 12.2 87 1.1 SE 6 7 3 4 1012.1 1012.0 0.0
26/12:00am 14.6 13.7 12.5 87 1.1 S 9 11 5 6 1012.8 1012.7 0.0
 
Date/Time
CDT
Temp
°C
App
Temp
°C
Dew
Point
Rel
Hum
%
Delta-T
°C
Wind Press
QNH
hPa
Press
MSL
hPa
Rain
since 9 am
mm
Dir
 
Spd
km/h
Gust
km/h
Spd
kts
Gust
kts
25/11:30pm 14.9 12.9 12.6 86 1.3 SSW 15 19 8 10 1013.3 1013.2 0.0
25/11:00pm 15.1 13.1 12.8 86 1.3 SSW 15 20 8 11 1013.7 1013.6 0.0

Other Formats:

Comma delimited format used in spreadsheet applications
http://www.bom.gov.au/fwo/IDS60801/IDS60801.94813.axf

JavaScript Object Notation format (JSON) in row-major order
http://www.bom.gov.au/fwo/IDS60801/IDS60801.94813.json